Airfield :
LOGIN :

Register | Disclaimer

   EN    FR    IT 

 










Legend :    VFR   Marginal VFR   IFR   Intensive IFR   Very Intensive IFR
Visi :
Ceiling :
>= 8 km
>= 3000ft
5 to 8 km
1000 to 3000 ft
1500m to 5 km
500 to 1000 ft
800 to 1500m
200 to 500 ft
< 800m
< 200 ft
Symbols :   Thunderstorms  Fog  Heavy snow  Heavy precipitations  Wind > 20 kt
SIGMETs :     Misc.  Thunderstorms  Icing  Turbulence  Mountain Waves  Volcanic Ashes






- Airport Elevation : 290 ft
- IATA code : OSI


LDOS - Osijek

CURRENT METAR :
  • 232100Z 00000KT 4000 BR NSC 11/11 Q1018

EXPIRED METARs :
  • 232030Z 29002KT 4000 BR NSC 11/10 Q1018
  • 232000Z 00000KT 6000 NSC 12/12 Q1018
  • 231930Z 00000KT 7000 NSC 12/11 Q1018
  • 231900Z 28002KT 7000 NSC 13/11 Q1018
  • 231830Z 00000KT 7000 NSC 14/12 Q1018
  • 231800Z 02003KT 7000 NSC 15/12 Q1018

TAF TAF LDOS
Valid from the 23 at 18:00 until the 24 at 18:00 UTC


231725Z 2318/2418 VRB02KT 8000 NSC TX24/2413Z TN06/2404Z
BECMG 2319/2322 3000 BR
PROB30 2402/2407 0600 FG
BECMG 2407/2409 CAVOK



MET'MAP, your aeronautical weather chart ! - Copyright ORBIFLY December 2007 - Disclaimer

ORBIFLY MET'MAP TEAM :

Programming & Development : Alexandra Zaïnal
Concept & Development : Baudouin d'Aumeries
Co-Development & Prog : Marc-Olivier Méhu
Technical & hardware support : Manuel Goepfert

Contact : metmap@orbifly.com




SOURCES & CREDITS :

   NOAA